sensor_id;sensor_type;location;lat;lon;timestamp;P1;durP1;ratioP1;P2;durP2;ratioP2
55417;SDS011;41287;47.554;7.844;2022-09-24T00:00:42;7.90;;;3.65;;
55417;SDS011;41287;47.554;7.844;2022-09-24T00:03:09;7.65;;;3.45;;
55417;SDS011;41287;47.554;7.844;2022-09-24T00:05:38;7.10;;;3.28;;
55417;SDS011;41287;47.554;7.844;2022-09-24T00:08:05;9.40;;;4.00;;
55417;SDS011;41287;47.554;7.844;2022-09-24T00:10:35;7.25;;;3.53;;
55417;SDS011;41287;47.554;7.844;2022-09-24T00:13:08;6.43;;;3.28;;
55417;SDS011;41287;47.554;7.844;2022-09-24T00:15:43;6.30;;;3.60;;
55417;SDS011;41287;47.554;7.844;2022-09-24T00:18:10;6.82;;;3.42;;
55417;SDS011;41287;47.554;7.844;2022-09-24T00:20:37;6.20;;;3.20;;
55417;SDS011;41287;47.554;7.844;2022-09-24T00:23:05;7.57;;;3.55;;
55417;SDS011;41287;47.554;7.844;2022-09-24T00:25:32;8.15;;;3.80;;
55417;SDS011;41287;47.554;7.844;2022-09-24T00:28:16;7.68;;;3.17;;
55417;SDS011;41287;47.554;7.844;2022-09-24T00:30:42;7.18;;;3.45;;
55417;SDS011;41287;47.554;7.844;2022-09-24T00:33:08;7.38;;;3.97;;
55417;SDS011;41287;47.554;7.844;2022-09-24T00:35:35;6.90;;;3.70;;
55417;SDS011;41287;47.554;7.844;2022-09-24T00:38:05;8.13;;;3.38;;
55417;SDS011;41287;47.554;7.844;2022-09-24T00:40:32;6.72;;;3.58;;
55417;SDS011;41287;47.554;7.844;2022-09-24T00:42:59;8.25;;;3.15;;
55417;SDS011;41287;47.554;7.844;2022-09-24T00:45:25;6.60;;;3.13;;
55417;SDS011;41287;47.554;7.844;2022-09-24T00:47:53;9.63;;;3.95;;
55417;SDS011;41287;47.554;7.844;2022-09-24T00:50:20;7.25;;;3.85;;
55417;SDS011;41287;47.554;7.844;2022-09-24T00:55:36;6.20;;;3.03;;
55417;SDS011;41287;47.554;7.844;2022-09-24T00:58:05;7.45;;;3.63;;
55417;SDS011;41287;47.554;7.844;2022-09-24T01:00:33;7.95;;;3.20;;
55417;SDS011;41287;47.554;7.844;2022-09-24T01:03:01;8.38;;;3.45;;
55417;SDS011;41287;47.554;7.844;2022-09-24T01:05:30;7.68;;;3.58;;
55417;SDS011;41287;47.554;7.844;2022-09-24T01:07:56;7.22;;;2.97;;
55417;SDS011;41287;47.554;7.844;2022-09-24T01:10:36;6.55;;;3.22;;
55417;SDS011;41287;47.554;7.844;2022-09-24T01:13:16;7.20;;;3.33;;
55417;SDS011;41287;47.554;7.844;2022-09-24T01:15:59;6.32;;;3.20;;
55417;SDS011;41287;47.554;7.844;2022-09-24T01:18:40;6.47;;;3.00;;
55417;SDS011;41287;47.554;7.844;2022-09-24T01:21:23;7.38;;;3.42;;
55417;SDS011;41287;47.554;7.844;2022-09-24T01:34:53;6.53;;;3.13;;
55417;SDS011;41287;47.554;7.844;2022-09-24T01:37:22;6.15;;;3.28;;
55417;SDS011;41287;47.554;7.844;2022-09-24T01:39:53;6.40;;;2.80;;
55417;SDS011;41287;47.554;7.844;2022-09-24T01:42:20;6.60;;;3.17;;
55417;SDS011;41287;47.554;7.844;2022-09-24T01:44:47;6.85;;;3.03;;
55417;SDS011;41287;47.554;7.844;2022-09-24T01:47:19;6.97;;;3.28;;
55417;SDS011;41287;47.554;7.844;2022-09-24T01:49:50;7.95;;;3.58;;
55417;SDS011;41287;47.554;7.844;2022-09-24T01:52:18;6.10;;;2.88;;
55417;SDS011;41287;47.554;7.844;2022-09-24T01:54:47;6.55;;;2.95;;
55417;SDS011;41287;47.554;7.844;2022-09-24T01:57:22;7.53;;;3.55;;
55417;SDS011;41287;47.554;7.844;2022-09-24T01:59:58;5.22;;;2.75;;
55417;SDS011;41287;47.554;7.844;2022-09-24T02:10:46;5.45;;;3.05;;
55417;SDS011;41287;47.554;7.844;2022-09-24T02:13:30;6.07;;;3.17;;
55417;SDS011;41287;47.554;7.844;2022-09-24T02:16:03;5.90;;;3.15;;
55417;SDS011;41287;47.554;7.844;2022-09-24T02:18:32;6.85;;;3.17;;
55417;SDS011;41287;47.554;7.844;2022-09-24T02:21:00;5.32;;;2.78;;
55417;SDS011;41287;47.554;7.844;2022-09-24T02:23:31;5.38;;;2.83;;
55417;SDS011;41287;47.554;7.844;2022-09-24T02:26:01;6.15;;;2.80;;
55417;SDS011;41287;47.554;7.844;2022-09-24T02:28:27;8.23;;;3.38;;
55417;SDS011;41287;47.554;7.844;2022-09-24T02:30:58;7.40;;;3.05;;
55417;SDS011;41287;47.554;7.844;2022-09-24T02:33:29;5.88;;;2.75;;
55417;SDS011;41287;47.554;7.844;2022-09-24T02:36:16;7.05;;;3.10;;
55417;SDS011;41287;47.554;7.844;2022-09-24T02:38:42;7.20;;;2.92;;
55417;SDS011;41287;47.554;7.844;2022-09-24T02:41:10;4.55;;;2.55;;
55417;SDS011;41287;47.554;7.844;2022-09-24T02:43:39;5.28;;;2.72;;
55417;SDS011;41287;47.554;7.844;2022-09-24T02:46:05;7.07;;;2.95;;
55417;SDS011;41287;47.554;7.844;2022-09-24T02:48:34;5.45;;;2.75;;
55417;SDS011;41287;47.554;7.844;2022-09-24T02:51:02;5.28;;;2.88;;
55417;SDS011;41287;47.554;7.844;2022-09-24T02:53:29;7.00;;;3.13;;
55417;SDS011;41287;47.554;7.844;2022-09-24T02:55:55;6.60;;;3.13;;
55417;SDS011;41287;47.554;7.844;2022-09-24T02:58:21;5.57;;;2.88;;
55417;SDS011;41287;47.554;7.844;2022-09-24T03:00:46;6.80;;;3.28;;
55417;SDS011;41287;47.554;7.844;2022-09-24T03:03:12;5.60;;;2.80;;
55417;SDS011;41287;47.554;7.844;2022-09-24T03:05:37;5.50;;;2.60;;
55417;SDS011;41287;47.554;7.844;2022-09-24T03:08:02;6.13;;;2.78;;
55417;SDS011;41287;47.554;7.844;2022-09-24T03:10:28;4.47;;;2.80;;
55417;SDS011;41287;47.554;7.844;2022-09-24T03:12:53;3.58;;;2.30;;
55417;SDS011;41287;47.554;7.844;2022-09-24T03:15:20;6.13;;;2.53;;
55417;SDS011;41287;47.554;7.844;2022-09-24T03:17:46;4.72;;;2.97;;
55417;SDS011;41287;47.554;7.844;2022-09-24T03:20:11;4.10;;;2.45;;
55417;SDS011;41287;47.554;7.844;2022-09-24T03:22:40;5.38;;;2.78;;
55417;SDS011;41287;47.554;7.844;2022-09-24T03:25:06;4.72;;;2.60;;
55417;SDS011;41287;47.554;7.844;2022-09-24T03:27:31;3.92;;;2.42;;
55417;SDS011;41287;47.554;7.844;2022-09-24T03:29:59;5.35;;;2.60;;
55417;SDS011;41287;47.554;7.844;2022-09-24T03:32:42;5.85;;;3.08;;
55417;SDS011;41287;47.554;7.844;2022-09-24T03:35:08;4.40;;;2.60;;
55417;SDS011;41287;47.554;7.844;2022-09-24T03:37:35;5.25;;;2.53;;
55417;SDS011;41287;47.554;7.844;2022-09-24T03:40:01;5.68;;;3.10;;
55417;SDS011;41287;47.554;7.844;2022-09-24T03:42:30;5.28;;;2.70;;
55417;SDS011;41287;47.554;7.844;2022-09-24T03:44:57;4.45;;;2.47;;
55417;SDS011;41287;47.554;7.844;2022-09-24T03:47:22;4.80;;;2.63;;
55417;SDS011;41287;47.554;7.844;2022-09-24T03:49:48;5.72;;;3.00;;
55417;SDS011;41287;47.554;7.844;2022-09-24T03:52:14;5.15;;;2.95;;
55417;SDS011;41287;47.554;7.844;2022-09-24T03:54:39;4.32;;;2.55;;
55417;SDS011;41287;47.554;7.844;2022-09-24T03:57:04;5.50;;;3.05;;
55417;SDS011;41287;47.554;7.844;2022-09-24T03:59:29;6.00;;;2.58;;
55417;SDS011;41287;47.554;7.844;2022-09-24T04:01:55;5.68;;;2.60;;
55417;SDS011;41287;47.554;7.844;2022-09-24T04:04:20;4.30;;;2.42;;
55417;SDS011;41287;47.554;7.844;2022-09-24T04:06:46;4.85;;;2.67;;
55417;SDS011;41287;47.554;7.844;2022-09-24T04:09:11;5.57;;;2.90;;
55417;SDS011;41287;47.554;7.844;2022-09-24T04:11:36;6.28;;;2.88;;
55417;SDS011;41287;47.554;7.844;2022-09-24T04:14:02;4.57;;;2.70;;
55417;SDS011;41287;47.554;7.844;2022-09-24T04:16:27;5.85;;;2.67;;
55417;SDS011;41287;47.554;7.844;2022-09-24T04:18:53;6.32;;;2.65;;
55417;SDS011;41287;47.554;7.844;2022-09-24T04:21:19;4.97;;;2.22;;
55417;SDS011;41287;47.554;7.844;2022-09-24T04:23:45;5.82;;;2.70;;
55417;SDS011;41287;47.554;7.844;2022-09-24T04:26:14;5.55;;;2.72;;
55417;SDS011;41287;47.554;7.844;2022-09-24T04:28:41;4.40;;;2.65;;
55417;SDS011;41287;47.554;7.844;2022-09-24T04:31:06;5.00;;;2.53;;
55417;SDS011;41287;47.554;7.844;2022-09-24T04:33:31;4.07;;;2.33;;
55417;SDS011;41287;47.554;7.844;2022-09-24T04:35:57;5.68;;;2.50;;
55417;SDS011;41287;47.554;7.844;2022-09-24T04:38:24;4.97;;;2.40;;
55417;SDS011;41287;47.554;7.844;2022-09-24T04:40:50;6.20;;;2.95;;
55417;SDS011;41287;47.554;7.844;2022-09-24T04:43:15;5.68;;;2.88;;
55417;SDS011;41287;47.554;7.844;2022-09-24T04:45:42;4.40;;;2.53;;
55417;SDS011;41287;47.554;7.844;2022-09-24T04:48:08;4.03;;;2.47;;
55417;SDS011;41287;47.554;7.844;2022-09-24T04:50:35;5.05;;;2.33;;
55417;SDS011;41287;47.554;7.844;2022-09-24T04:53:01;4.00;;;2.38;;
55417;SDS011;41287;47.554;7.844;2022-09-24T04:55:27;3.42;;;2.17;;
55417;SDS011;41287;47.554;7.844;2022-09-24T04:57:56;6.72;;;2.83;;
55417;SDS011;41287;47.554;7.844;2022-09-24T05:00:22;3.50;;;2.10;;
55417;SDS011;41287;47.554;7.844;2022-09-24T05:02:54;5.50;;;2.50;;
55417;SDS011;41287;47.554;7.844;2022-09-24T05:05:22;4.45;;;2.60;;
55417;SDS011;41287;47.554;7.844;2022-09-24T05:07:47;4.07;;;2.38;;
55417;SDS011;41287;47.554;7.844;2022-09-24T05:10:15;4.53;;;2.28;;
55417;SDS011;41287;47.554;7.844;2022-09-24T05:12:41;5.35;;;2.80;;
55417;SDS011;41287;47.554;7.844;2022-09-24T05:15:06;4.15;;;2.42;;
55417;SDS011;41287;47.554;7.844;2022-09-24T05:17:32;4.93;;;2.78;;
55417;SDS011;41287;47.554;7.844;2022-09-24T05:20:03;5.07;;;2.47;;
55417;SDS011;41287;47.554;7.844;2022-09-24T05:22:29;4.32;;;2.55;;
55417;SDS011;41287;47.554;7.844;2022-09-24T05:24:55;5.30;;;2.53;;
55417;SDS011;41287;47.554;7.844;2022-09-24T05:27:21;5.35;;;2.78;;
55417;SDS011;41287;47.554;7.844;2022-09-24T05:29:47;4.70;;;2.17;;
55417;SDS011;41287;47.554;7.844;2022-09-24T05:32:13;4.68;;;2.33;;
55417;SDS011;41287;47.554;7.844;2022-09-24T05:34:41;3.90;;;2.35;;
55417;SDS011;41287;47.554;7.844;2022-09-24T05:37:11;3.25;;;2.05;;
55417;SDS011;41287;47.554;7.844;2022-09-24T05:39:37;4.47;;;2.30;;
55417;SDS011;41287;47.554;7.844;2022-09-24T05:42:03;4.95;;;2.65;;
55417;SDS011;41287;47.554;7.844;2022-09-24T05:44:29;4.22;;;2.25;;
55417;SDS011;41287;47.554;7.844;2022-09-24T05:46:55;3.33;;;1.95;;
55417;SDS011;41287;47.554;7.844;2022-09-24T05:49:21;4.05;;;2.40;;
55417;SDS011;41287;47.554;7.844;2022-09-24T05:51:47;4.72;;;2.60;;
55417;SDS011;41287;47.554;7.844;2022-09-24T05:54:14;2.60;;;1.75;;
55417;SDS011;41287;47.554;7.844;2022-09-24T05:56:40;3.38;;;2.13;;
55417;SDS011;41287;47.554;7.844;2022-09-24T05:59:09;4.47;;;2.20;;
55417;SDS011;41287;47.554;7.844;2022-09-24T06:01:35;4.93;;;2.60;;
55417;SDS011;41287;47.554;7.844;2022-09-24T06:04:00;4.57;;;2.40;;
55417;SDS011;41287;47.554;7.844;2022-09-24T06:06:26;3.67;;;1.98;;
55417;SDS011;41287;47.554;7.844;2022-09-24T06:08:52;4.70;;;2.60;;
55417;SDS011;41287;47.554;7.844;2022-09-24T06:11:18;3.95;;;2.08;;
55417;SDS011;41287;47.554;7.844;2022-09-24T06:13:46;4.45;;;2.20;;
55417;SDS011;41287;47.554;7.844;2022-09-24T06:16:12;4.47;;;2.03;;
55417;SDS011;41287;47.554;7.844;2022-09-24T06:18:40;4.70;;;2.10;;
55417;SDS011;41287;47.554;7.844;2022-09-24T06:21:08;8.02;;;2.13;;
55417;SDS011;41287;47.554;7.844;2022-09-24T06:23:35;4.90;;;2.08;;
55417;SDS011;41287;47.554;7.844;2022-09-24T06:26:02;3.70;;;2.22;;
55417;SDS011;41287;47.554;7.844;2022-09-24T06:28:29;6.35;;;1.85;;
55417;SDS011;41287;47.554;7.844;2022-09-24T06:30:58;3.80;;;1.58;;
55417;SDS011;41287;47.554;7.844;2022-09-24T06:33:25;3.17;;;1.58;;
55417;SDS011;41287;47.554;7.844;2022-09-24T06:35:52;6.28;;;1.83;;
55417;SDS011;41287;47.554;7.844;2022-09-24T06:38:17;5.75;;;2.03;;
55417;SDS011;41287;47.554;7.844;2022-09-24T06:40:44;2.28;;;1.50;;
55417;SDS011;41287;47.554;7.844;2022-09-24T06:43:14;1.92;;;1.23;;
55417;SDS011;41287;47.554;7.844;2022-09-24T06:45:42;2.22;;;1.30;;
55417;SDS011;41287;47.554;7.844;2022-09-24T06:48:12;2.58;;;1.58;;
55417;SDS011;41287;47.554;7.844;2022-09-24T06:50:39;3.42;;;1.77;;
55417;SDS011;41287;47.554;7.844;2022-09-24T06:53:07;2.03;;;1.25;;
55417;SDS011;41287;47.554;7.844;2022-09-24T06:55:34;2.97;;;1.70;;
55417;SDS011;41287;47.554;7.844;2022-09-24T06:58:21;2.17;;;1.42;;
55417;SDS011;41287;47.554;7.844;2022-09-24T07:00:52;2.22;;;1.30;;
55417;SDS011;41287;47.554;7.844;2022-09-24T07:03:22;2.33;;;1.20;;
55417;SDS011;41287;47.554;7.844;2022-09-24T07:05:51;2.58;;;1.30;;
55417;SDS011;41287;47.554;7.844;2022-09-24T07:08:16;3.38;;;1.58;;
55417;SDS011;41287;47.554;7.844;2022-09-24T07:10:42;2.88;;;1.50;;
55417;SDS011;41287;47.554;7.844;2022-09-24T07:13:09;2.80;;;1.70;;
55417;SDS011;41287;47.554;7.844;2022-09-24T07:15:36;3.20;;;1.73;;
55417;SDS011;41287;47.554;7.844;2022-09-24T07:18:01;4.07;;;1.88;;
55417;SDS011;41287;47.554;7.844;2022-09-24T07:20:27;4.38;;;2.33;;
55417;SDS011;41287;47.554;7.844;2022-09-24T07:22:55;2.88;;;1.73;;
55417;SDS011;41287;47.554;7.844;2022-09-24T07:25:20;3.80;;;1.95;;
55417;SDS011;41287;47.554;7.844;2022-09-24T07:27:46;5.32;;;2.45;;
55417;SDS011;41287;47.554;7.844;2022-09-24T07:30:11;5.50;;;2.10;;
55417;SDS011;41287;47.554;7.844;2022-09-24T07:32:38;3.85;;;2.33;;
55417;SDS011;41287;47.554;7.844;2022-09-24T07:35:04;4.75;;;2.30;;
55417;SDS011;41287;47.554;7.844;2022-09-24T07:37:30;3.55;;;2.35;;
55417;SDS011;41287;47.554;7.844;2022-09-24T07:39:58;5.97;;;2.55;;
55417;SDS011;41287;47.554;7.844;2022-09-24T07:42:23;6.28;;;2.95;;
55417;SDS011;41287;47.554;7.844;2022-09-24T07:44:50;5.60;;;2.88;;
55417;SDS011;41287;47.554;7.844;2022-09-24T07:47:15;6.70;;;3.05;;
55417;SDS011;41287;47.554;7.844;2022-09-24T07:49:41;5.63;;;2.80;;
55417;SDS011;41287;47.554;7.844;2022-09-24T07:52:07;7.28;;;2.88;;
55417;SDS011;41287;47.554;7.844;2022-09-24T07:54:34;7.53;;;3.10;;
55417;SDS011;41287;47.554;7.844;2022-09-24T07:56:59;8.27;;;3.20;;
55417;SDS011;41287;47.554;7.844;2022-09-24T07:59:26;7.60;;;3.88;;
55417;SDS011;41287;47.554;7.844;2022-09-24T08:01:52;8.60;;;3.63;;
55417;SDS011;41287;47.554;7.844;2022-09-24T08:04:17;9.02;;;4.25;;
55417;SDS011;41287;47.554;7.844;2022-09-24T08:06:43;9.50;;;4.30;;
55417;SDS011;41287;47.554;7.844;2022-09-24T08:09:08;7.07;;;3.85;;
55417;SDS011;41287;47.554;7.844;2022-09-24T08:11:33;10.80;;;4.03;;
55417;SDS011;41287;47.554;7.844;2022-09-24T08:13:59;10.07;;;4.35;;
55417;SDS011;41287;47.554;7.844;2022-09-24T08:16:25;10.30;;;4.85;;
55417;SDS011;41287;47.554;7.844;2022-09-24T08:18:51;11.80;;;4.70;;
55417;SDS011;41287;47.554;7.844;2022-09-24T08:21:19;13.00;;;5.40;;
55417;SDS011;41287;47.554;7.844;2022-09-24T08:23:45;13.68;;;6.07;;
55417;SDS011;41287;47.554;7.844;2022-09-24T08:26:11;12.07;;;5.47;;
55417;SDS011;41287;47.554;7.844;2022-09-24T08:28:37;10.45;;;4.63;;
55417;SDS011;41287;47.554;7.844;2022-09-24T08:31:06;9.02;;;4.68;;
55417;SDS011;41287;47.554;7.844;2022-09-24T08:33:35;9.45;;;4.63;;
55417;SDS011;41287;47.554;7.844;2022-09-24T08:36:01;8.82;;;3.53;;
55417;SDS011;41287;47.554;7.844;2022-09-24T08:38:28;6.45;;;2.60;;
55417;SDS011;41287;47.554;7.844;2022-09-24T08:46:48;6.88;;;2.90;;
55417;SDS011;41287;47.554;7.844;2022-09-24T08:49:39;6.25;;;2.47;;
55417;SDS011;41287;47.554;7.844;2022-09-24T08:54:52;8.77;;;2.45;;
55417;SDS011;41287;47.554;7.844;2022-09-24T08:57:20;5.70;;;2.63;;
55417;SDS011;41287;47.554;7.844;2022-09-24T08:59:48;3.35;;;2.05;;
55417;SDS011;41287;47.554;7.844;2022-09-24T09:10:33;5.53;;;2.55;;
55417;SDS011;41287;47.554;7.844;2022-09-24T09:13:07;6.32;;;2.65;;
55417;SDS011;41287;47.554;7.844;2022-09-24T09:15:40;5.95;;;2.25;;
55417;SDS011;41287;47.554;7.844;2022-09-24T09:18:27;7.07;;;2.15;;
55417;SDS011;41287;47.554;7.844;2022-09-24T09:21:01;7.53;;;2.47;;
55417;SDS011;41287;47.554;7.844;2022-09-24T09:23:49;3.80;;;2.30;;
55417;SDS011;41287;47.554;7.844;2022-09-24T09:26:16;6.72;;;2.38;;
55417;SDS011;41287;47.554;7.844;2022-09-24T09:28:44;3.95;;;2.08;;
55417;SDS011;41287;47.554;7.844;2022-09-24T09:31:14;7.88;;;2.63;;
55417;SDS011;41287;47.554;7.844;2022-09-24T09:33:56;4.38;;;1.73;;
55417;SDS011;41287;47.554;7.844;2022-09-24T09:36:40;6.95;;;2.25;;
55417;SDS011;41287;47.554;7.844;2022-09-24T09:42:30;6.30;;;2.25;;
55417;SDS011;41287;47.554;7.844;2022-09-24T09:45:00;4.43;;;1.52;;
55417;SDS011;41287;47.554;7.844;2022-09-24T09:47:42;4.65;;;2.00;;
55417;SDS011;41287;47.554;7.844;2022-09-24T09:52:52;7.18;;;2.15;;
55417;SDS011;41287;47.554;7.844;2022-09-24T09:55:29;3.40;;;1.70;;
55417;SDS011;41287;47.554;7.844;2022-09-24T10:00:39;4.88;;;1.70;;
55417;SDS011;41287;47.554;7.844;2022-09-24T10:03:05;4.00;;;2.05;;
55417;SDS011;41287;47.554;7.844;2022-09-24T10:05:50;3.08;;;1.70;;
55417;SDS011;41287;47.554;7.844;2022-09-24T10:08:19;4.50;;;2.17;;
55417;SDS011;41287;47.554;7.844;2022-09-24T10:10:51;5.72;;;2.13;;
55417;SDS011;41287;47.554;7.844;2022-09-24T10:13:19;4.90;;;1.80;;
55417;SDS011;41287;47.554;7.844;2022-09-24T10:15:48;4.85;;;2.08;;
55417;SDS011;41287;47.554;7.844;2022-09-24T10:18:16;6.05;;;1.95;;
55417;SDS011;41287;47.554;7.844;2022-09-24T10:20:53;4.93;;;1.90;;
55417;SDS011;41287;47.554;7.844;2022-09-24T10:23:21;5.43;;;2.10;;
55417;SDS011;41287;47.554;7.844;2022-09-24T10:25:59;3.75;;;2.10;;
55417;SDS011;41287;47.554;7.844;2022-09-24T10:28:25;5.45;;;1.80;;
55417;SDS011;41287;47.554;7.844;2022-09-24T10:31:11;3.13;;;1.73;;
55417;SDS011;41287;47.554;7.844;2022-09-24T10:33:40;5.72;;;1.70;;
55417;SDS011;41287;47.554;7.844;2022-09-24T10:36:13;6.35;;;1.77;;
55417;SDS011;41287;47.554;7.844;2022-09-24T10:38:42;4.25;;;1.70;;
55417;SDS011;41287;47.554;7.844;2022-09-24T10:41:12;4.70;;;1.67;;
55417;SDS011;41287;47.554;7.844;2022-09-24T10:43:50;5.70;;;1.50;;
55417;SDS011;41287;47.554;7.844;2022-09-24T10:46:25;5.07;;;1.52;;
55417;SDS011;41287;47.554;7.844;2022-09-24T11:00:00;3.17;;;1.35;;
55417;SDS011;41287;47.554;7.844;2022-09-24T11:05:19;4.15;;;1.40;;
55417;SDS011;41287;47.554;7.844;2022-09-24T11:18:32;5.57;;;1.85;;
55417;SDS011;41287;47.554;7.844;2022-09-24T11:21:28;3.72;;;1.63;;
55417;SDS011;41287;47.554;7.844;2022-09-24T11:29:25;3.20;;;1.65;;
55417;SDS011;41287;47.554;7.844;2022-09-24T11:34:36;6.40;;;1.83;;
55417;SDS011;41287;47.554;7.844;2022-09-24T11:37:08;3.78;;;1.67;;
55417;SDS011;41287;47.554;7.844;2022-09-24T11:40:03;3.58;;;1.63;;
55417;SDS011;41287;47.554;7.844;2022-09-24T11:45:49;3.60;;;1.63;;
55417;SDS011;41287;47.554;7.844;2022-09-24T11:51:45;4.28;;;1.70;;
55417;SDS011;41287;47.554;7.844;2022-09-24T11:54:20;7.47;;;2.13;;
55417;SDS011;41287;47.554;7.844;2022-09-24T11:56:52;6.57;;;1.90;;
55417;SDS011;41287;47.554;7.844;2022-09-24T11:59:38;6.43;;;1.70;;
55417;SDS011;41287;47.554;7.844;2022-09-24T12:05:08;6.10;;;1.83;;
55417;SDS011;41287;47.554;7.844;2022-09-24T12:07:44;4.60;;;1.60;;
55417;SDS011;41287;47.554;7.844;2022-09-24T12:13:15;4.28;;;1.80;;
55417;SDS011;41287;47.554;7.844;2022-09-24T12:15:45;4.80;;;1.50;;
55417;SDS011;41287;47.554;7.844;2022-09-24T12:18:25;4.00;;;1.60;;
55417;SDS011;41287;47.554;7.844;2022-09-24T12:20:55;3.42;;;1.50;;
55417;SDS011;41287;47.554;7.844;2022-09-24T12:23:28;5.00;;;1.70;;
55417;SDS011;41287;47.554;7.844;2022-09-24T12:25:58;3.75;;;1.65;;
55417;SDS011;41287;47.554;7.844;2022-09-24T12:28:28;2.95;;;1.50;;
55417;SDS011;41287;47.554;7.844;2022-09-24T12:31:31;5.90;;;1.45;;
55417;SDS011;41287;47.554;7.844;2022-09-24T12:34:53;2.72;;;1.45;;
55417;SDS011;41287;47.554;7.844;2022-09-24T12:37:36;2.45;;;1.38;;
55417;SDS011;41287;47.554;7.844;2022-09-24T12:42:33;2.78;;;1.45;;
55417;SDS011;41287;47.554;7.844;2022-09-24T12:45:06;2.85;;;1.48;;
55417;SDS011;41287;47.554;7.844;2022-09-24T12:47:43;2.13;;;1.30;;
55417;SDS011;41287;47.554;7.844;2022-09-24T12:50:26;3.42;;;1.60;;
55417;SDS011;41287;47.554;7.844;2022-09-24T12:52:55;3.15;;;1.30;;
55417;SDS011;41287;47.554;7.844;2022-09-24T12:57:57;4.22;;;1.65;;
55417;SDS011;41287;47.554;7.844;2022-09-24T13:00:34;7.68;;;1.75;;
55417;SDS011;41287;47.554;7.844;2022-09-24T13:03:03;2.72;;;1.48;;
55417;SDS011;41287;47.554;7.844;2022-09-24T13:10:55;4.00;;;1.45;;
55417;SDS011;41287;47.554;7.844;2022-09-24T13:13:25;2.60;;;1.35;;
55417;SDS011;41287;47.554;7.844;2022-09-24T13:18:28;2.42;;;1.30;;
55417;SDS011;41287;47.554;7.844;2022-09-24T13:21:06;2.72;;;1.40;;
55417;SDS011;41287;47.554;7.844;2022-09-24T13:26:03;2.95;;;1.30;;
55417;SDS011;41287;47.554;7.844;2022-09-24T13:28:31;3.80;;;1.55;;
55417;SDS011;41287;47.554;7.844;2022-09-24T13:31:10;4.53;;;1.35;;
55417;SDS011;41287;47.554;7.844;2022-09-24T13:34:03;2.67;;;1.45;;
55417;SDS011;41287;47.554;7.844;2022-09-24T13:36:56;2.58;;;1.20;;
55417;SDS011;41287;47.554;7.844;2022-09-24T13:39:33;3.28;;;1.20;;
55417;SDS011;41287;47.554;7.844;2022-09-24T13:42:14;3.30;;;1.38;;
55417;SDS011;41287;47.554;7.844;2022-09-24T13:44:46;1.95;;;1.17;;
55417;SDS011;41287;47.554;7.844;2022-09-24T13:47:21;2.75;;;1.40;;
55417;SDS011;41287;47.554;7.844;2022-09-24T13:49:51;3.15;;;1.20;;
55417;SDS011;41287;47.554;7.844;2022-09-24T13:52:31;3.15;;;1.40;;
55417;SDS011;41287;47.554;7.844;2022-09-24T13:55:00;4.82;;;1.50;;
55417;SDS011;41287;47.554;7.844;2022-09-24T13:57:41;6.13;;;1.70;;
55417;SDS011;41287;47.554;7.844;2022-09-24T14:02:39;4.38;;;1.10;;
55417;SDS011;41287;47.554;7.844;2022-09-24T14:05:10;3.63;;;1.40;;
55417;SDS011;41287;47.554;7.844;2022-09-24T14:07:41;2.15;;;1.40;;
55417;SDS011;41287;47.554;7.844;2022-09-24T14:10:15;4.10;;;1.52;;
55417;SDS011;41287;47.554;7.844;2022-09-24T14:12:41;2.72;;;1.15;;
55417;SDS011;41287;47.554;7.844;2022-09-24T14:15:15;3.13;;;1.25;;
55417;SDS011;41287;47.554;7.844;2022-09-24T14:17:53;4.07;;;1.42;;
55417;SDS011;41287;47.554;7.844;2022-09-24T14:20:20;2.63;;;1.30;;
55417;SDS011;41287;47.554;7.844;2022-09-24T14:22:46;3.33;;;1.30;;
55417;SDS011;41287;47.554;7.844;2022-09-24T14:25:14;2.90;;;1.52;;
55417;SDS011;41287;47.554;7.844;2022-09-24T14:27:44;3.20;;;1.20;;
55417;SDS011;41287;47.554;7.844;2022-09-24T14:30:16;2.05;;;1.40;;
55417;SDS011;41287;47.554;7.844;2022-09-24T14:32:48;2.55;;;1.30;;
55417;SDS011;41287;47.554;7.844;2022-09-24T14:35:18;3.00;;;1.40;;
55417;SDS011;41287;47.554;7.844;2022-09-24T14:37:50;5.70;;;1.52;;
55417;SDS011;41287;47.554;7.844;2022-09-24T14:40:18;3.67;;;1.50;;
55417;SDS011;41287;47.554;7.844;2022-09-24T14:42:53;5.15;;;1.50;;
55417;SDS011;41287;47.554;7.844;2022-09-24T14:45:26;3.38;;;1.40;;
55417;SDS011;41287;47.554;7.844;2022-09-24T14:48:23;3.85;;;1.52;;
55417;SDS011;41287;47.554;7.844;2022-09-24T14:50:52;3.10;;;1.48;;
55417;SDS011;41287;47.554;7.844;2022-09-24T14:53:25;5.72;;;1.50;;
55417;SDS011;41287;47.554;7.844;2022-09-24T14:55:57;3.80;;;1.10;;
55417;SDS011;41287;47.554;7.844;2022-09-24T15:00:54;4.83;;;1.40;;
55417;SDS011;41287;47.554;7.844;2022-09-24T15:06:14;2.38;;;1.20;;
55417;SDS011;41287;47.554;7.844;2022-09-24T15:09:06;3.40;;;1.45;;
55417;SDS011;41287;47.554;7.844;2022-09-24T15:12:05;3.40;;;1.73;;
55417;SDS011;41287;47.554;7.844;2022-09-24T15:14:32;2.40;;;1.23;;
55417;SDS011;41287;47.554;7.844;2022-09-24T15:17:08;2.13;;;1.10;;
55417;SDS011;41287;47.554;7.844;2022-09-24T15:19:43;2.17;;;1.23;;
55417;SDS011;41287;47.554;7.844;2022-09-24T15:22:11;4.25;;;1.38;;
55417;SDS011;41287;47.554;7.844;2022-09-24T15:24:37;4.80;;;1.70;;
55417;SDS011;41287;47.554;7.844;2022-09-24T15:27:14;4.88;;;1.33;;
55417;SDS011;41287;47.554;7.844;2022-09-24T15:32:13;3.73;;;1.60;;
55417;SDS011;41287;47.554;7.844;2022-09-24T15:34:40;4.60;;;1.52;;
55417;SDS011;41287;47.554;7.844;2022-09-24T15:37:07;4.28;;;1.67;;
55417;SDS011;41287;47.554;7.844;2022-09-24T15:39:35;3.08;;;1.20;;
55417;SDS011;41287;47.554;7.844;2022-09-24T15:42:01;3.78;;;1.48;;
55417;SDS011;41287;47.554;7.844;2022-09-24T15:44:26;2.85;;;1.63;;
55417;SDS011;41287;47.554;7.844;2022-09-24T15:46:51;2.13;;;1.30;;
55417;SDS011;41287;47.554;7.844;2022-09-24T15:49:17;2.25;;;1.13;;
55417;SDS011;41287;47.554;7.844;2022-09-24T15:51:46;3.08;;;1.23;;
55417;SDS011;41287;47.554;7.844;2022-09-24T15:54:13;5.55;;;1.63;;
55417;SDS011;41287;47.554;7.844;2022-09-24T15:56:38;3.25;;;1.20;;
55417;SDS011;41287;47.554;7.844;2022-09-24T15:59:09;3.00;;;1.40;;
55417;SDS011;41287;47.554;7.844;2022-09-24T16:01:38;3.15;;;1.45;;
55417;SDS011;41287;47.554;7.844;2022-09-24T16:04:03;4.47;;;1.40;;
55417;SDS011;41287;47.554;7.844;2022-09-24T16:06:29;3.75;;;1.33;;
55417;SDS011;41287;47.554;7.844;2022-09-24T16:08:54;2.53;;;1.23;;
55417;SDS011;41287;47.554;7.844;2022-09-24T16:11:19;2.88;;;1.30;;
55417;SDS011;41287;47.554;7.844;2022-09-24T16:13:49;4.63;;;1.20;;
55417;SDS011;41287;47.554;7.844;2022-09-24T16:16:14;2.08;;;1.30;;
55417;SDS011;41287;47.554;7.844;2022-09-24T16:18:39;4.30;;;1.20;;
55417;SDS011;41287;47.554;7.844;2022-09-24T16:21:08;3.58;;;1.55;;
55417;SDS011;41287;47.554;7.844;2022-09-24T16:23:33;2.20;;;1.17;;
55417;SDS011;41287;47.554;7.844;2022-09-24T16:25:59;2.90;;;1.23;;
55417;SDS011;41287;47.554;7.844;2022-09-24T16:28:25;2.67;;;1.30;;
55417;SDS011;41287;47.554;7.844;2022-09-24T16:30:51;2.83;;;1.80;;
55417;SDS011;41287;47.554;7.844;2022-09-24T16:33:17;3.72;;;1.48;;
55417;SDS011;41287;47.554;7.844;2022-09-24T16:35:42;2.80;;;1.10;;
55417;SDS011;41287;47.554;7.844;2022-09-24T16:38:08;2.55;;;1.20;;
55417;SDS011;41287;47.554;7.844;2022-09-24T16:40:38;2.10;;;1.45;;
55417;SDS011;41287;47.554;7.844;2022-09-24T16:43:04;2.42;;;1.42;;
55417;SDS011;41287;47.554;7.844;2022-09-24T16:45:29;5.28;;;1.90;;
55417;SDS011;41287;47.554;7.844;2022-09-24T16:47:55;3.50;;;1.92;;
55417;SDS011;41287;47.554;7.844;2022-09-24T16:50:21;3.58;;;1.92;;
55417;SDS011;41287;47.554;7.844;2022-09-24T16:52:47;4.07;;;1.85;;
55417;SDS011;41287;47.554;7.844;2022-09-24T16:55:14;4.80;;;1.73;;
55417;SDS011;41287;47.554;7.844;2022-09-24T16:57:39;3.30;;;1.63;;
55417;SDS011;41287;47.554;7.844;2022-09-24T17:00:05;4.85;;;2.35;;
55417;SDS011;41287;47.554;7.844;2022-09-24T17:02:33;5.70;;;2.10;;